createdAt,value
2022-08-03T00:01:18.795Z,101408.84
2022-08-03T00:02:50.737Z,101411.50
2022-08-03T00:04:22.813Z,101412.47
2022-08-03T00:06:05.951Z,101409.88
2022-08-03T00:07:38.860Z,101415.28
2022-08-03T00:09:10.924Z,101411.91
2022-08-03T00:10:42.765Z,101420.97
2022-08-03T00:12:14.892Z,101411.38
2022-08-03T00:13:47.066Z,101416.81
2022-08-03T00:15:19.117Z,101420.41
2022-08-03T00:16:51.193Z,101413.44
2022-08-03T00:18:23.051Z,101413.50
2022-08-03T00:19:57.875Z,101415.41
2022-08-03T00:21:29.808Z,101411.19
2022-08-03T00:23:01.758Z,101413.16
2022-08-03T00:24:36.225Z,101405.25
2022-08-03T00:26:08.099Z,101407.03
2022-08-03T00:27:39.911Z,101408.84
2022-08-03T00:29:11.862Z,101411.59
2022-08-03T00:30:43.727Z,101404.59
2022-08-03T00:32:16.973Z,101403.81
2022-08-03T00:33:59.023Z,101411.91
2022-08-03T00:35:50.041Z,101409.31
2022-08-03T00:37:22.990Z,101415.59
2022-08-03T00:39:12.905Z,101416.69
2022-08-03T00:40:44.790Z,101414.19
2022-08-03T00:42:17.019Z,101415.22
2022-08-03T00:43:49.058Z,101415.28
2022-08-03T00:45:25.756Z,101408.38
2022-08-03T00:46:57.654Z,101413.72
2022-08-03T00:48:33.383Z,101403.19
2022-08-03T00:50:06.073Z,101401.47
2022-08-03T00:51:37.932Z,101405.06
2022-08-03T00:53:13.617Z,101407.88
2022-08-03T00:54:45.531Z,101403.47
2022-08-03T00:56:18.186Z,101399.94
2022-08-03T00:57:50.047Z,101405.34
2022-08-03T00:59:22.047Z,101397.66
2022-08-03T01:00:53.935Z,101396.00
2022-08-03T01:02:29.376Z,101401.34
2022-08-03T01:04:01.353Z,101402.25
2022-08-03T01:05:57.838Z,101394.31
2022-08-03T01:07:57.454Z,101399.72
2022-08-03T01:09:41.714Z,101392.75
2022-08-03T01:11:24.868Z,101390.06
2022-08-03T01:13:05.019Z,101398.22
2022-08-03T01:14:47.093Z,101389.44
2022-08-03T01:16:36.656Z,101388.66
2022-08-03T01:18:19.211Z,101387.06
2022-08-03T01:20:01.874Z,101386.28
2022-08-03T01:21:40.038Z,101388.16
2022-08-03T01:23:17.534Z,101383.78
2022-08-03T01:25:07.667Z,101383.06
2022-08-03T01:27:05.774Z,101385.81
2022-08-03T01:29:02.282Z,101385.88
2022-08-03T01:30:35.553Z,101378.03
2022-08-03T01:32:58.411Z,101394.97
2022-08-03T01:34:12.202Z,101391.59
2022-08-03T01:35:51.078Z,101394.31
2022-08-03T01:37:28.447Z,101387.25
2022-08-03T01:39:02.449Z,101391.72
2022-08-03T01:40:36.915Z,101393.47
2022-08-03T01:42:10.596Z,101392.66
2022-08-03T01:44:27.623Z,101394.53
2022-08-03T01:45:36.778Z,101392.81
2022-08-03T01:47:32.605Z,101386.69
2022-08-03T01:49:09.376Z,101384.19
2022-08-03T01:50:42.117Z,101383.50
2022-08-03T01:52:14.838Z,101382.78
2022-08-03T01:53:47.334Z,101379.38
2022-08-03T01:55:20.437Z,101382.31
2022-08-03T01:56:55.737Z,101381.69
2022-08-03T01:58:28.365Z,101379.16
2022-08-03T02:00:00.079Z,101383.56
2022-08-03T02:02:28.311Z,101381.97
2022-08-03T02:03:27.353Z,101377.66
2022-08-03T02:05:01.579Z,101378.50
2022-08-03T02:07:00.237Z,101378.59
2022-08-03T02:08:31.131Z,101378.59
2022-08-03T02:10:06.212Z,101380.25
2022-08-03T02:11:38.523Z,101382.97
2022-08-03T02:13:10.886Z,101383.03
2022-08-03T02:14:44.621Z,101379.59
2022-08-03T02:16:18.515Z,101381.47
2022-08-03T02:17:50.604Z,101379.88
2022-08-03T02:19:23.606Z,101376.41
2022-08-03T02:20:56.090Z,101369.44
2022-08-03T02:22:29.340Z,101376.56
2022-08-03T02:24:01.310Z,101369.50
2022-08-03T02:25:35.615Z,101373.09
2022-08-03T02:27:15.311Z,101373.97
2022-08-03T02:28:49.901Z,101378.50
2022-08-03T02:30:25.425Z,101375.03
2022-08-03T02:31:59.909Z,101376.84
2022-08-03T02:34:21.688Z,101378.69
2022-08-03T02:35:54.587Z,101367.38
2022-08-03T02:37:29.347Z,101373.78
2022-08-03T02:39:01.900Z,101371.19
2022-08-03T02:40:34.203Z,101363.31
2022-08-03T02:42:10.337Z,101365.19
2022-08-03T02:44:07.011Z,101363.41
2022-08-03T02:45:45.593Z,101363.47
2022-08-03T02:47:21.597Z,101369.06
2022-08-03T02:48:54.920Z,101369.13
2022-08-03T02:50:27.752Z,101362.28
2022-08-03T02:52:00.310Z,101369.56
2022-08-03T02:53:33.864Z,101362.75
2022-08-03T02:55:07.248Z,101365.53
2022-08-03T02:56:39.950Z,101364.75
2022-08-03T02:58:12.135Z,101361.16
2022-08-03T02:59:44.469Z,101364.81
2022-08-03T03:01:19.436Z,101357.03
2022-08-03T03:02:52.195Z,101357.06
2022-08-03T03:04:26.354Z,101367.78
2022-08-03T03:06:05.749Z,101361.72
2022-08-03T03:07:46.869Z,101361.78
2022-08-03T03:09:27.203Z,101367.97
2022-08-03T03:11:13.809Z,101359.19
2022-08-03T03:12:45.791Z,101368.97
2022-08-03T03:14:18.108Z,101365.50
2022-08-03T03:16:06.492Z,101361.91
2022-08-03T03:17:39.405Z,101369.03
2022-08-03T03:19:12.969Z,101362.13
2022-08-03T03:20:45.668Z,101361.13
2022-08-03T03:22:17.605Z,101360.19
2022-08-03T03:23:49.796Z,101364.66
2022-08-03T03:25:21.739Z,101361.38
2022-08-03T03:26:54.888Z,101358.91
2022-08-03T03:28:26.783Z,101358.25
2022-08-03T03:30:30.323Z,101364.63
2022-08-03T03:32:02.631Z,101357.78
2022-08-03T03:33:35.530Z,101367.56
2022-08-03T03:35:08.085Z,101365.94
2022-08-03T03:36:39.956Z,101358.03
2022-08-03T03:38:11.987Z,101358.03
2022-08-03T03:39:43.871Z,101358.16
2022-08-03T03:41:15.784Z,101361.75
2022-08-03T03:42:47.771Z,101367.19
2022-08-03T03:44:19.682Z,101360.19
2022-08-03T03:45:54.865Z,101366.56
2022-08-03T03:47:32.270Z,101365.69
2022-08-03T03:49:07.448Z,101367.56
2022-08-03T03:50:43.375Z,101366.78
2022-08-03T03:52:17.022Z,101367.78
2022-08-03T03:54:02.505Z,101368.69
2022-08-03T03:55:34.401Z,101360.09
2022-08-03T03:57:06.267Z,101366.41
2022-08-03T03:58:38.177Z,101369.19
2022-08-03T04:00:11.481Z,101369.19
2022-08-03T04:01:43.323Z,101365.50
2022-08-03T04:03:15.360Z,101372.66
2022-08-03T04:05:05.797Z,101371.00
2022-08-03T04:06:55.959Z,101369.25
2022-08-03T04:08:46.514Z,101374.56
2022-08-03T04:10:41.626Z,101369.25
2022-08-03T04:12:13.945Z,101370.31
2022-08-03T04:14:04.457Z,101368.53
2022-08-03T04:15:38.637Z,101372.91
2022-08-03T04:17:12.391Z,101366.59
2022-08-03T04:18:48.652Z,101368.28
2022-08-03T04:20:21.211Z,101370.81
2022-08-03T04:21:57.000Z,101372.41
2022-08-03T04:23:31.575Z,101368.75
2022-08-03T04:25:05.970Z,101373.94
2022-08-03T04:26:40.604Z,101367.78
2022-08-03T04:28:31.370Z,101365.06
2022-08-03T04:30:06.555Z,101358.88
2022-08-03T04:31:39.218Z,101366.03
2022-08-03T04:33:11.059Z,101358.88
2022-08-03T04:34:45.093Z,101364.06
2022-08-03T04:36:26.444Z,101375.63
2022-08-03T04:38:06.229Z,101364.03
2022-08-03T04:39:39.676Z,101370.28
2022-08-03T04:41:11.959Z,101366.03
2022-08-03T04:42:46.352Z,101368.75
2022-08-03T04:44:21.099Z,101371.22
2022-08-03T04:46:01.588Z,101372.09
2022-08-03T04:47:34.101Z,101372.00
2022-08-03T04:49:06.637Z,101377.19
2022-08-03T04:50:38.670Z,101375.41
2022-08-03T04:52:11.031Z,101380.59
2022-08-03T04:53:43.791Z,101384.13
2022-08-03T04:55:28.346Z,101381.41
2022-08-03T04:57:00.198Z,101385.84
2022-08-03T04:58:34.592Z,101386.72
2022-08-03T05:00:06.974Z,101387.97
2022-08-03T05:01:40.356Z,101388.97
2022-08-03T05:03:23.505Z,101386.44
2022-08-03T05:04:56.384Z,101389.28
2022-08-03T05:06:28.274Z,101391.16
2022-08-03T05:08:04.185Z,101386.81
2022-08-03T05:09:50.455Z,101383.28
2022-08-03T05:11:27.485Z,101384.16
2022-08-03T05:12:59.457Z,101393.00
2022-08-03T05:14:31.308Z,101384.09
2022-08-03T05:16:03.153Z,101388.47
2022-08-03T05:17:35.014Z,101384.03
2022-08-03T05:19:07.717Z,101390.09
2022-08-03T05:20:39.676Z,101385.56
2022-08-03T05:22:11.501Z,101390.09
2022-08-03T05:23:44.450Z,101397.06
2022-08-03T05:25:17.372Z,101396.22
2022-08-03T05:26:51.823Z,101398.00
2022-08-03T05:28:23.731Z,101397.94
2022-08-03T05:29:55.589Z,101400.59
2022-08-03T05:31:27.392Z,101401.53
2022-08-03T05:33:00.092Z,101393.44
2022-08-03T05:34:32.144Z,101395.97
2022-08-03T05:36:04.636Z,101403.13
2022-08-03T05:37:36.980Z,101398.69
2022-08-03T05:39:08.775Z,101398.69
2022-08-03T05:40:40.648Z,101401.34
2022-08-03T05:42:28.956Z,101399.53
2022-08-03T05:44:01.628Z,101401.13
2022-08-03T05:45:35.932Z,101395.81
2022-08-03T05:47:07.878Z,101397.47
2022-08-03T05:48:39.831Z,101403.59
2022-08-03T05:50:12.904Z,101399.13
2022-08-03T05:51:44.937Z,101404.31
2022-08-03T05:53:16.808Z,101403.31
2022-08-03T05:54:56.962Z,101405.03
2022-08-03T05:56:29.448Z,101400.41
2022-08-03T05:58:03.946Z,101408.31
2022-08-03T05:59:38.995Z,101403.72
2022-08-03T06:01:11.019Z,101406.34
2022-08-03T06:02:43.353Z,101403.53
2022-08-03T06:04:15.281Z,101404.28
2022-08-03T06:05:55.554Z,101403.22
2022-08-03T06:07:32.885Z,101403.03
2022-08-03T06:09:04.809Z,101403.81
2022-08-03T06:10:38.368Z,101402.75
2022-08-03T06:12:14.093Z,101400.91
2022-08-03T06:13:49.715Z,101401.50
2022-08-03T06:15:21.634Z,101409.06
2022-08-03T06:16:53.527Z,101408.56
2022-08-03T06:18:25.910Z,101405.63
2022-08-03T06:19:57.739Z,101410.53
2022-08-03T06:21:29.578Z,101409.47
2022-08-03T06:23:02.954Z,101409.25
2022-08-03T06:24:34.869Z,101407.31
2022-08-03T06:26:06.812Z,101408.91
2022-08-03T06:27:40.310Z,101413.06
2022-08-03T06:29:12.121Z,101406.66
2022-08-03T06:30:44.884Z,101408.25
2022-08-03T06:32:16.701Z,101416.88
2022-08-03T06:34:33.405Z,101418.34
2022-08-03T06:35:45.243Z,101413.00
2022-08-03T06:37:17.060Z,101411.28
2022-08-03T06:38:48.903Z,101411.00
2022-08-03T06:40:31.583Z,101417.91
2022-08-03T06:42:04.282Z,101421.28
2022-08-03T06:43:38.154Z,101420.97
2022-08-03T06:45:32.144Z,101418.22
2022-08-03T06:47:04.261Z,101417.22
2022-08-03T06:48:36.084Z,101425.09
2022-08-03T06:50:16.423Z,101416.03
2022-08-03T06:52:03.687Z,101418.41
2022-08-03T06:53:38.758Z,101419.69
2022-08-03T06:55:10.612Z,101420.97
2022-08-03T06:56:42.564Z,101410.78
2022-08-03T06:58:14.462Z,101415.31
2022-08-03T07:00:08.445Z,101419.28
2022-08-03T07:01:38.256Z,101419.53
2022-08-03T07:03:10.124Z,101423.63
2022-08-03T07:04:42.047Z,101419.94
2022-08-03T07:06:13.900Z,101427.22
2022-08-03T07:07:46.181Z,101414.13
2022-08-03T07:09:18.022Z,101413.81
2022-08-03T07:10:50.141Z,101416.78
2022-08-03T07:12:22.106Z,101421.94
2022-08-03T07:13:54.012Z,101420.00
2022-08-03T07:15:54.326Z,101421.66
2022-08-03T07:17:18.682Z,101416.16
2022-08-03T07:18:50.594Z,101422.03
2022-08-03T07:20:22.817Z,101419.91
2022-08-03T07:21:56.470Z,101419.25
2022-08-03T07:23:34.760Z,101420.56
2022-08-03T07:25:06.996Z,101427.22
2022-08-03T07:26:38.841Z,101419.97
2022-08-03T07:28:10.800Z,101423.78
2022-08-03T07:29:45.338Z,101422.66
2022-08-03T07:31:17.189Z,101425.13
2022-08-03T07:32:49.871Z,101432.91
2022-08-03T07:34:22.673Z,101429.69
2022-08-03T07:35:54.680Z,101429.25
2022-08-03T07:37:26.504Z,101428.75
2022-08-03T07:38:58.512Z,101422.84
2022-08-03T07:40:31.599Z,101429.50
2022-08-03T07:42:04.322Z,101419.91
2022-08-03T07:43:36.185Z,101430.19
2022-08-03T07:45:08.978Z,101424.47
2022-08-03T07:46:48.658Z,101424.13
2022-08-03T07:48:20.577Z,101420.28
2022-08-03T07:49:55.834Z,101422.59
2022-08-03T07:51:27.753Z,101425.97
2022-08-03T07:52:59.990Z,101421.91
2022-08-03T07:54:32.243Z,101424.88
2022-08-03T07:56:10.763Z,101425.47
2022-08-03T07:57:44.222Z,101424.81
2022-08-03T07:59:18.433Z,101424.34
2022-08-03T08:00:55.183Z,101423.31
2022-08-03T08:02:27.127Z,101429.81
2022-08-03T08:03:59.525Z,101434.13
2022-08-03T08:05:31.656Z,101430.22
2022-08-03T08:07:03.577Z,101426.22
2022-08-03T08:08:35.435Z,101425.53
2022-08-03T08:10:11.041Z,101430.59
2022-08-03T08:11:42.868Z,101429.44
2022-08-03T08:13:14.782Z,101428.09
2022-08-03T08:14:46.904Z,101424.91
2022-08-03T08:16:18.803Z,101426.88
2022-08-03T08:18:03.494Z,101411.69
2022-08-03T08:19:36.788Z,101412.34
2022-08-03T08:21:13.378Z,101414.97
2022-08-03T08:22:45.391Z,101413.69
2022-08-03T08:24:20.359Z,101404.91
2022-08-03T08:25:52.960Z,101407.25
2022-08-03T08:27:27.448Z,101404.59
2022-08-03T08:28:59.382Z,101412.44
2022-08-03T08:30:32.804Z,101408.69
2022-08-03T08:32:04.973Z,101404.19
2022-08-03T08:34:02.461Z,101408.59
2022-08-03T08:35:29.118Z,101410.63
2022-08-03T08:37:01.795Z,101409.16
2022-08-03T08:38:38.756Z,101410.69
2022-08-03T08:40:11.443Z,101401.13
2022-08-03T08:41:45.765Z,101401.97
2022-08-03T08:43:17.860Z,101401.09
2022-08-03T08:44:49.897Z,101406.38
2022-08-03T08:46:23.859Z,101402.28
2022-08-03T08:48:00.985Z,101404.19
2022-08-03T08:49:36.306Z,101402.28
2022-08-03T08:51:09.869Z,101400.53
2022-08-03T08:52:42.518Z,101408.31
2022-08-03T08:54:15.828Z,101398.50
2022-08-03T08:55:56.938Z,101398.91
2022-08-03T08:57:43.084Z,101399.06
2022-08-03T08:59:15.724Z,101410.06
2022-08-03T09:00:48.610Z,101405.00
2022-08-03T09:02:20.579Z,101399.88
2022-08-03T09:03:54.319Z,101403.56
2022-08-03T09:05:53.883Z,101413.25
2022-08-03T09:07:20.305Z,101412.38
2022-08-03T09:08:52.673Z,101407.81
2022-08-03T09:10:26.803Z,101401.81
2022-08-03T09:12:20.900Z,101407.09
2022-08-03T09:13:50.739Z,101404.44
2022-08-03T09:15:31.734Z,101392.06
2022-08-03T09:17:04.643Z,101399.06
2022-08-03T09:18:36.555Z,101398.84
2022-08-03T09:20:10.041Z,101392.69
2022-08-03T09:21:41.923Z,101395.44
2022-08-03T09:23:59.466Z,101401.63
2022-08-03T09:25:27.381Z,101398.56
2022-08-03T09:26:59.347Z,101402.59
2022-08-03T09:28:58.050Z,101405.06
2022-08-03T09:30:34.724Z,101407.38
2022-08-03T09:32:07.033Z,101399.28
2022-08-03T09:33:48.859Z,101388.88
2022-08-03T09:35:51.767Z,101401.16
2022-08-03T09:37:20.917Z,101390.84
2022-08-03T09:39:42.493Z,101399.19
2022-08-03T09:41:20.124Z,101391.94
2022-08-03T09:42:58.789Z,101394.53
2022-08-03T09:44:38.629Z,101401.16
2022-08-03T09:46:10.518Z,101404.34
2022-08-03T09:47:44.943Z,101397.22
2022-08-03T09:49:17.685Z,101399.88
2022-08-03T09:50:58.535Z,101392.41
2022-08-03T09:52:50.078Z,101401.34
2022-08-03T09:54:31.891Z,101393.97
2022-08-03T09:56:34.728Z,101393.13
2022-08-03T09:58:09.307Z,101395.09
2022-08-03T09:59:41.547Z,101399.63
2022-08-03T10:01:24.215Z,101390.69
2022-08-03T10:03:04.853Z,101382.94
2022-08-03T10:04:47.472Z,101384.75
2022-08-03T10:06:20.667Z,101382.53
2022-08-03T10:07:52.598Z,101380.69
2022-08-03T10:09:24.428Z,101376.56
2022-08-03T10:11:01.117Z,101376.63
2022-08-03T10:12:33.078Z,101379.53
2022-08-03T10:14:19.711Z,101378.53
2022-08-03T10:16:22.547Z,101375.41
2022-08-03T10:17:43.635Z,101368.97
2022-08-03T10:19:16.489Z,101374.06
2022-08-03T10:20:56.081Z,101377.25
2022-08-03T10:22:29.845Z,101365.00
2022-08-03T10:24:07.155Z,101370.19
2022-08-03T10:25:40.822Z,101365.34
2022-08-03T10:27:13.756Z,101370.03
2022-08-03T10:28:50.629Z,101374.59
2022-08-03T10:30:26.502Z,101360.06
2022-08-03T10:31:59.117Z,101362.63
2022-08-03T10:33:51.695Z,101361.78
2022-08-03T10:35:29.720Z,101353.28
2022-08-03T10:37:04.597Z,101355.44
2022-08-03T10:38:41.583Z,101353.59
2022-08-03T10:40:33.271Z,101353.06
2022-08-03T10:42:14.704Z,101352.78
2022-08-03T10:44:13.774Z,101355.59
2022-08-03T10:45:46.383Z,101346.75
2022-08-03T10:47:18.671Z,101354.88
2022-08-03T10:48:52.545Z,101351.31
2022-08-03T10:50:25.326Z,101358.91
2022-08-03T10:51:57.273Z,101348.78
2022-08-03T10:53:55.047Z,101347.34
2022-08-03T10:55:56.217Z,101344.78
2022-08-03T10:57:50.447Z,101347.94
2022-08-03T10:59:46.018Z,101344.97
2022-08-03T11:01:19.289Z,101350.22
2022-08-03T11:03:18.698Z,101346.75
2022-08-03T11:05:26.477Z,101336.94
2022-08-03T11:07:17.717Z,101339.00
2022-08-03T11:08:51.205Z,101336.25
2022-08-03T11:10:32.315Z,101340.38
2022-08-03T11:12:30.836Z,101339.91
2022-08-03T11:14:04.935Z,101334.03
2022-08-03T11:15:37.551Z,101336.34
2022-08-03T11:17:14.475Z,101322.88
2022-08-03T11:18:57.498Z,101335.09
2022-08-03T11:20:54.191Z,101332.91
2022-08-03T11:22:28.402Z,101330.31
2022-08-03T11:24:04.309Z,101329.34
2022-08-03T11:26:12.372Z,101328.63
2022-08-03T11:27:44.317Z,101327.19
2022-08-03T11:29:29.560Z,101328.59
2022-08-03T11:31:49.746Z,101317.13
2022-08-03T11:33:30.035Z,101331.56
2022-08-03T11:35:25.595Z,101328.34
2022-08-03T11:37:30.115Z,101310.06
2022-08-03T11:39:16.962Z,101311.59
2022-08-03T11:40:50.939Z,101316.66
2022-08-03T11:42:25.897Z,101309.03
2022-08-03T11:43:57.793Z,101308.88
2022-08-03T11:45:31.338Z,101316.63
2022-08-03T11:47:03.185Z,101319.81
2022-08-03T11:48:45.772Z,101313.38
2022-08-03T11:50:19.134Z,101310.22
2022-08-03T11:51:54.145Z,101306.22
2022-08-03T11:53:26.003Z,101313.06
2022-08-03T11:54:57.897Z,101312.94
2022-08-03T11:56:47.915Z,101305.47
2022-08-03T11:59:01.643Z,101314.38
2022-08-03T12:00:32.400Z,101310.09
2022-08-03T12:02:12.147Z,101317.47
2022-08-03T12:03:44.136Z,101313.91
2022-08-03T12:05:16.073Z,101314.75
2022-08-03T12:07:01.294Z,101308.56
2022-08-03T12:08:34.156Z,101300.88
2022-08-03T12:10:11.567Z,101306.75
2022-08-03T12:11:50.909Z,101307.50
2022-08-03T12:14:08.809Z,101311.44
2022-08-03T12:15:36.500Z,101306.47
2022-08-03T12:17:08.377Z,101304.44
2022-08-03T12:18:40.282Z,101300.28
2022-08-03T12:20:22.196Z,101300.94
2022-08-03T12:22:06.581Z,101301.16
2022-08-03T12:23:39.271Z,101298.59
2022-08-03T12:25:39.265Z,101311.88
2022-08-03T12:27:11.864Z,101309.25
2022-08-03T12:28:50.130Z,101308.09
2022-08-03T12:30:23.717Z,101292.72
2022-08-03T12:31:56.613Z,101296.13
2022-08-03T12:33:28.685Z,101299.44
2022-08-03T12:35:06.035Z,101296.13
2022-08-03T12:36:39.211Z,101306.69
2022-08-03T12:38:12.983Z,101294.41
2022-08-03T12:40:02.511Z,101292.00
2022-08-03T12:41:39.710Z,101291.09
2022-08-03T12:43:13.197Z,101284.13
2022-08-03T12:44:46.382Z,101292.06
2022-08-03T12:46:20.217Z,101295.59
2022-08-03T12:48:00.488Z,101296.78
2022-08-03T12:49:54.148Z,101293.16
2022-08-03T12:51:27.687Z,101293.47
2022-08-03T12:53:01.271Z,101284.19
2022-08-03T12:54:34.700Z,101291.47
2022-08-03T12:56:06.666Z,101289.31
2022-08-03T12:57:42.219Z,101302.81
2022-08-03T12:59:32.505Z,101295.59
2022-08-03T13:01:09.677Z,101297.94
2022-08-03T13:02:46.329Z,101295.06
2022-08-03T13:04:35.290Z,101295.06
2022-08-03T13:06:25.857Z,101293.66
2022-08-03T13:07:58.425Z,101293.72
2022-08-03T13:09:33.264Z,101291.63
2022-08-03T13:11:55.373Z,101295.97
2022-08-03T13:13:20.884Z,101291.31
2022-08-03T13:14:58.659Z,101294.28
2022-08-03T13:16:30.514Z,101288.13
2022-08-03T13:18:02.456Z,101289.91
2022-08-03T13:19:38.696Z,101287.38
2022-08-03T13:21:10.649Z,101286.97
2022-08-03T13:22:43.555Z,101280.81
2022-08-03T13:24:15.533Z,101285.81
2022-08-03T13:25:55.149Z,101283.25
2022-08-03T13:28:03.893Z,101284.91
2022-08-03T13:29:21.188Z,101280.03
2022-08-03T13:30:54.886Z,101278.16
2022-08-03T13:32:26.898Z,101281.41
2022-08-03T13:33:58.811Z,101279.22
2022-08-03T13:35:30.680Z,101286.69
2022-08-03T13:37:10.264Z,101284.22
2022-08-03T13:38:42.393Z,101286.28
2022-08-03T13:40:14.771Z,101278.81
2022-08-03T13:41:47.181Z,101274.91
2022-08-03T13:43:20.049Z,101273.09
2022-08-03T13:44:52.062Z,101261.03
2022-08-03T13:46:24.232Z,101265.97
2022-08-03T13:47:56.143Z,101270.78
2022-08-03T13:49:29.085Z,101271.13
2022-08-03T13:51:05.330Z,101271.63
2022-08-03T13:52:46.515Z,101272.78
2022-08-03T13:54:21.431Z,101272.78
2022-08-03T13:55:55.995Z,101268.03
2022-08-03T13:58:04.545Z,101269.72
2022-08-03T13:59:20.905Z,101261.34
2022-08-03T14:00:52.752Z,101275.00
2022-08-03T14:02:27.900Z,101259.34
2022-08-03T14:03:59.873Z,101254.09
2022-08-03T14:05:32.376Z,101264.50
2022-08-03T14:07:04.531Z,101261.13
2022-08-03T14:08:36.439Z,101260.28
2022-08-03T14:10:08.839Z,101257.22
2022-08-03T14:12:07.172Z,101247.84
2022-08-03T14:13:33.860Z,101243.06
2022-08-03T14:15:10.190Z,101246.16
2022-08-03T14:16:43.372Z,101245.47
2022-08-03T14:18:28.384Z,101251.56
2022-08-03T14:20:25.957Z,101237.59
2022-08-03T14:22:06.184Z,101242.19
2022-08-03T14:23:38.966Z,101243.41
2022-08-03T14:25:10.970Z,101236.88
2022-08-03T14:26:46.235Z,101236.00
2022-08-03T14:28:23.236Z,101239.06
2022-08-03T14:29:59.797Z,101245.69
2022-08-03T14:32:11.292Z,101238.53
2022-08-03T14:33:24.351Z,101235.81
2022-08-03T14:34:56.283Z,101238.91
2022-08-03T14:36:28.202Z,101228.34
2022-08-03T14:38:00.148Z,101231.41
2022-08-03T14:40:01.814Z,101231.06
2022-08-03T14:41:23.917Z,101235.53
2022-08-03T14:42:56.086Z,101221.09
2022-08-03T14:44:27.983Z,101221.44
2022-08-03T14:45:59.915Z,101226.88
2022-08-03T14:47:31.877Z,101213.75
2022-08-03T14:50:36.395Z,101217.84
2022-08-03T14:50:57.271Z,101213.94
2022-08-03T14:52:29.263Z,101209.66
2022-08-03T14:54:09.353Z,101204.72
2022-08-03T14:55:49.762Z,101209.28
2022-08-03T14:57:26.159Z,101208.91
2022-08-03T14:58:58.029Z,101207.03
2022-08-03T15:00:29.821Z,101208.91
2022-08-03T15:02:10.192Z,101212.31
2022-08-03T15:03:47.905Z,101213.44
2022-08-03T15:05:19.783Z,101220.00
2022-08-03T15:06:51.691Z,101205.34
2022-08-03T15:08:27.495Z,101216.38
2022-08-03T15:10:02.379Z,101196.91
2022-08-03T15:11:34.592Z,101202.53
2022-08-03T15:13:06.428Z,101203.78
2022-08-03T15:14:38.287Z,101199.91
2022-08-03T15:16:10.297Z,101199.09
2022-08-03T15:17:59.641Z,101195.25
2022-08-03T15:20:00.511Z,101196.50
2022-08-03T15:21:46.885Z,101199.06
2022-08-03T15:23:17.397Z,101192.91
2022-08-03T15:24:49.265Z,101198.72
2022-08-03T15:26:32.243Z,101195.97
2022-08-03T15:28:07.152Z,101186.44
2022-08-03T15:30:04.759Z,101194.09
2022-08-03T15:31:30.940Z,101189.78
2022-08-03T15:33:03.264Z,101196.59
2022-08-03T15:34:35.109Z,101190.81
2022-08-03T15:36:07.092Z,101183.50
2022-08-03T15:37:41.498Z,101195.91
2022-08-03T15:39:13.487Z,101189.44
2022-08-03T15:40:45.893Z,101197.63
2022-08-03T15:42:17.680Z,101188.22
2022-08-03T15:43:50.497Z,101192.47
2022-08-03T15:45:22.535Z,101187.38
2022-08-03T15:46:54.395Z,101185.88
2022-08-03T15:48:26.519Z,101182.31
2022-08-03T15:49:58.383Z,101177.88
2022-08-03T15:51:30.296Z,101182.69
2022-08-03T15:53:02.116Z,101180.78
2022-08-03T15:54:33.994Z,101178.38
2022-08-03T15:56:12.136Z,101179.06
2022-08-03T15:59:04.117Z,101176.88
2022-08-03T15:59:38.016Z,101169.75
2022-08-03T16:01:16.392Z,101168.22
2022-08-03T16:02:51.053Z,101173.50
2022-08-03T16:04:29.983Z,101162.97
2022-08-03T16:06:05.882Z,101157.00
2022-08-03T16:08:03.689Z,101166.91
2022-08-03T16:09:42.368Z,101172.84
2022-08-03T16:11:16.163Z,101167.72
2022-08-03T16:12:48.806Z,101164.84
2022-08-03T16:14:34.818Z,101162.66
2022-08-03T16:16:12.219Z,101161.78
2022-08-03T16:17:44.091Z,101167.72
2022-08-03T16:19:16.113Z,101166.38
2022-08-03T16:20:48.254Z,101166.38
2022-08-03T16:22:22.920Z,101156.16
2022-08-03T16:23:55.179Z,101160.94
2022-08-03T16:25:28.049Z,101156.16
2022-08-03T16:27:00.456Z,101160.91
2022-08-03T16:28:34.276Z,101153.09
2022-08-03T16:30:07.335Z,101158.88
2022-08-03T16:31:39.716Z,101158.88
2022-08-03T16:33:23.468Z,101155.47
2022-08-03T16:34:55.325Z,101154.44
2022-08-03T16:36:27.198Z,101152.06
2022-08-03T16:38:10.089Z,101150.00
2022-08-03T16:39:42.888Z,101155.75
2022-08-03T16:41:14.750Z,101152.34
2022-08-03T16:42:47.316Z,101147.47
2022-08-03T16:44:28.271Z,101152.00
2022-08-03T16:46:00.081Z,101147.25
2022-08-03T16:47:31.976Z,101149.31
2022-08-03T16:49:03.990Z,101142.50
2022-08-03T16:50:36.510Z,101152.47
2022-08-03T16:52:08.413Z,101136.97
2022-08-03T16:54:05.473Z,101136.09
2022-08-03T16:55:48.728Z,101140.88
2022-08-03T16:57:56.079Z,101138.31
2022-08-03T16:59:17.351Z,101138.66
2022-08-03T17:00:51.005Z,101137.09
2022-08-03T17:02:26.056Z,101143.56
2022-08-03T17:04:04.620Z,101142.06
2022-08-03T17:05:47.194Z,101138.47
2022-08-03T17:07:20.465Z,101140.88
2022-08-03T17:08:55.479Z,101142.06
2022-08-03T17:10:27.698Z,101134.56
2022-08-03T17:11:59.505Z,101138.66
2022-08-03T17:13:38.871Z,101133.47
2022-08-03T17:15:11.696Z,101135.06
2022-08-03T17:16:51.901Z,101128.94
2022-08-03T17:18:26.101Z,101129.97
2022-08-03T17:19:59.711Z,101135.41
2022-08-03T17:21:36.607Z,101131.13
2022-08-03T17:23:34.105Z,101131.66
2022-08-03T17:25:09.578Z,101139.66
2022-08-03T17:26:55.450Z,101132.34
2022-08-03T17:28:49.565Z,101136.78
2022-08-03T17:30:21.872Z,101126.88
2022-08-03T17:31:57.230Z,101131.94
2022-08-03T17:33:35.430Z,101136.22
2022-08-03T17:35:08.493Z,101127.38
2022-08-03T17:38:41.274Z,101130.75
2022-08-03T17:40:17.369Z,101136.25
2022-08-03T17:41:50.672Z,101130.75
2022-08-03T17:44:13.580Z,101127.81
2022-08-03T17:45:17.957Z,101131.34
2022-08-03T17:46:51.523Z,101128.16
2022-08-03T17:48:25.689Z,101131.69
2022-08-03T17:49:57.568Z,101136.38
2022-08-03T17:51:53.048Z,101135.31
2022-08-03T17:53:30.747Z,101138.47
2022-08-03T17:55:55.981Z,101141.81
2022-08-03T17:57:26.368Z,101143.63
2022-08-03T17:59:08.603Z,101137.75
2022-08-03T18:01:02.300Z,101144.16
2022-08-03T18:03:04.025Z,101146.81
2022-08-03T18:04:41.246Z,101141.84
2022-08-03T18:06:13.466Z,101135.47
2022-08-03T18:08:02.535Z,101143.06
2022-08-03T18:10:04.772Z,101137.41
2022-08-03T18:13:25.549Z,101141.13
2022-08-03T18:15:07.593Z,101144.84
2022-08-03T18:17:10.293Z,101147.31
2022-08-03T18:18:44.147Z,101140.63
2022-08-03T18:20:31.022Z,101150.06
2022-08-03T18:22:06.800Z,101142.31
2022-08-03T18:23:42.116Z,101145.50
2022-08-03T18:25:45.694Z,101142.38
2022-08-03T18:27:47.654Z,101139.72
2022-08-03T18:30:53.596Z,101142.16
2022-08-03T18:32:03.047Z,101139.06
2022-08-03T18:34:17.133Z,101138.81
2022-08-03T18:35:58.149Z,101143.97
2022-08-03T18:37:33.378Z,101144.25